sensor_id;sensor_type;location;lat;lon;timestamp;pressure;altitude;pressure_sealevel;temperature;humidity
59513;BME280;45330;51.634;5.562;2024-03-23T00:55:41;101018.00;;;5.41;100.00
59513;BME280;45330;51.634;5.562;2024-03-23T00:58:08;101021.44;;;5.41;100.00
59513;BME280;45330;51.634;5.562;2024-03-23T01:00:33;100993.69;;;5.26;100.00
59513;BME280;45330;51.634;5.562;2024-03-23T01:02:58;100988.47;;;5.23;100.00
59513;BME280;45330;51.634;5.562;2024-03-23T01:05:24;100969.41;;;5.15;100.00
59513;BME280;45330;51.634;5.562;2024-03-23T01:07:49;100998.22;;;5.41;100.00
59513;BME280;45330;51.634;5.562;2024-03-23T01:10:15;100966.03;;;5.19;100.00
59513;BME280;45330;51.634;5.562;2024-03-23T01:12:40;101017.16;;;5.40;100.00
59513;BME280;45330;51.634;5.562;2024-03-23T01:15:06;100991.06;;;5.23;100.00
59513;BME280;45330;51.634;5.562;2024-03-23T01:17:31;101015.34;;;5.35;100.00
59513;BME280;45330;51.634;5.562;2024-03-23T01:19:57;100949.22;;;4.92;100.00
59513;BME280;45330;51.634;5.562;2024-03-23T01:22:22;101008.28;;;5.26;100.00
59513;BME280;45330;51.634;5.562;2024-03-23T01:24:48;101001.41;;;5.25;100.00
59513;BME280;45330;51.634;5.562;2024-03-23T01:27:13;100996.09;;;5.19;100.00
59513;BME280;45330;51.634;5.562;2024-03-23T01:29:38;100938.91;;;4.92;100.00
59513;BME280;45330;51.634;5.562;2024-03-23T01:32:04;100988.28;;;5.14;100.00
59513;BME280;45330;51.634;5.562;2024-03-23T01:34:30;100945.69;;;4.89;100.00
59513;BME280;45330;51.634;5.562;2024-03-23T01:36:55;100974.44;;;5.09;100.00
59513;BME280;45330;51.634;5.562;2024-03-23T01:39:20;100932.69;;;4.81;100.00
59513;BME280;45330;51.634;5.562;2024-03-23T01:41:46;100971.75;;;5.03;100.00
59513;BME280;45330;51.634;5.562;2024-03-23T01:44:11;100968.19;;;4.97;100.00
59513;BME280;45330;51.634;5.562;2024-03-23T01:46:37;100929.16;;;4.77;100.00
59513;BME280;45330;51.634;5.562;2024-03-23T01:49:04;100895.34;;;4.62;100.00
59513;BME280;45330;51.634;5.562;2024-03-23T01:51:30;100916.22;;;4.74;100.00
59513;BME280;45330;51.634;5.562;2024-03-23T01:53:57;100945.84;;;4.96;100.00
59513;BME280;45330;51.634;5.562;2024-03-23T01:56:26;100966.56;;;5.01;100.00
59513;BME280;45330;51.634;5.562;2024-03-23T01:58:51;100964.00;;;5.01;100.00
59513;BME280;45330;51.634;5.562;2024-03-23T02:01:16;100958.84;;;5.03;100.00
59513;BME280;45330;51.634;5.562;2024-03-23T02:03:42;100956.22;;;5.00;100.00
59513;BME280;45330;51.634;5.562;2024-03-23T02:06:08;100924.94;;;4.81;100.00
59513;BME280;45330;51.634;5.562;2024-03-23T02:08:34;100947.72;;;5.04;100.00
59513;BME280;45330;51.634;5.562;2024-03-23T02:10:59;100911.16;;;4.80;100.00
59513;BME280;45330;51.634;5.562;2024-03-23T02:13:25;100944.25;;;5.05;100.00
59513;BME280;45330;51.634;5.562;2024-03-23T02:15:50;100938.16;;;4.98;100.00
59513;BME280;45330;51.634;5.562;2024-03-23T02:18:15;100952.91;;;5.07;100.00
59513;BME280;45330;51.634;5.562;2024-03-23T02:20:41;100964.13;;;5.09;100.00
59513;BME280;45330;51.634;5.562;2024-03-23T02:23:13;100934.56;;;4.91;100.00
59513;BME280;45330;51.634;5.562;2024-03-23T02:25:38;100936.38;;;4.95;100.00
59513;BME280;45330;51.634;5.562;2024-03-23T02:28:04;100918.16;;;4.88;100.00
59513;BME280;45330;51.634;5.562;2024-03-23T02:30:30;100934.72;;;5.01;100.00
59513;BME280;45330;51.634;5.562;2024-03-23T02:32:55;100900.81;;;4.77;100.00
59513;BME280;45330;51.634;5.562;2024-03-23T02:35:21;100937.28;;;4.99;100.00
59513;BME280;45330;51.634;5.562;2024-03-23T02:37:46;100935.56;;;4.98;100.00
59513;BME280;45330;51.634;5.562;2024-03-23T02:40:14;100937.28;;;4.99;100.00
59513;BME280;45330;51.634;5.562;2024-03-23T02:42:39;100912.06;;;4.81;100.00
59513;BME280;45330;51.634;5.562;2024-03-23T02:45:05;100929.41;;;4.91;100.00
59513;BME280;45330;51.634;5.562;2024-03-23T02:47:30;100912.84;;;4.78;100.00
59513;BME280;45330;51.634;5.562;2024-03-23T02:49:56;100914.56;;;4.79;100.00
59513;BME280;45330;51.634;5.562;2024-03-23T02:52:21;100941.53;;;4.95;100.00
59513;BME280;45330;51.634;5.562;2024-03-23T02:54:47;100898.19;;;4.74;100.00
59513;BME280;45330;51.634;5.562;2024-03-23T02:57:12;100928.59;;;4.92;100.00
59513;BME280;45330;51.634;5.562;2024-03-23T02:59:37;100938.94;;;4.95;100.00
59513;BME280;45330;51.634;5.562;2024-03-23T03:02:03;100905.09;;;4.77;100.00
59513;BME280;45330;51.634;5.562;2024-03-23T03:04:32;100903.28;;;4.71;100.00
59513;BME280;45330;51.634;5.562;2024-03-23T03:06:57;100932.91;;;4.95;100.00
59513;BME280;45330;51.634;5.562;2024-03-23T03:09:23;100908.56;;;4.79;100.00
59513;BME280;45330;51.634;5.562;2024-03-23T03:11:48;100940.63;;;4.95;100.00
59513;BME280;45330;51.634;5.562;2024-03-23T03:14:13;100906.75;;;4.75;100.00
59513;BME280;45330;51.634;5.562;2024-03-23T03:16:39;100944.13;;;4.95;100.00
59513;BME280;45330;51.634;5.562;2024-03-23T03:19:04;100944.91;;;4.91;100.00
59513;BME280;45330;51.634;5.562;2024-03-23T03:21:29;100903.16;;;4.67;100.00
59513;BME280;45330;51.634;5.562;2024-03-23T03:23:55;100947.41;;;4.87;100.00
59513;BME280;45330;51.634;5.562;2024-03-23T03:26:22;100915.16;;;4.64;100.00
59513;BME280;45330;51.634;5.562;2024-03-23T03:28:47;100946.41;;;4.80;100.00
59513;BME280;45330;51.634;5.562;2024-03-23T03:31:17;100923.78;;;4.67;100.00
59513;BME280;45330;51.634;5.562;2024-03-23T03:33:43;100905.44;;;4.51;100.00
59513;BME280;45330;51.634;5.562;2024-03-23T03:36:09;100932.44;;;4.69;100.00
59513;BME280;45330;51.634;5.562;2024-03-23T03:38:34;100934.03;;;4.63;100.00
59513;BME280;45330;51.634;5.562;2024-03-23T03:41:04;100895.72;;;4.36;100.00
59513;BME280;45330;51.634;5.562;2024-03-23T03:43:29;100931.28;;;4.54;100.00
59513;BME280;45330;51.634;5.562;2024-03-23T03:45:56;100893.94;;;4.34;100.00
59513;BME280;45330;51.634;5.562;2024-03-23T03:48:22;100926.03;;;4.50;100.00
59513;BME280;45330;51.634;5.562;2024-03-23T03:50:47;100899.88;;;4.29;100.00
59513;BME280;45330;51.634;5.562;2024-03-23T03:53:13;100913.72;;;4.35;100.00
59513;BME280;45330;51.634;5.562;2024-03-23T03:55:38;100921.47;;;4.35;100.00
59513;BME280;45330;51.634;5.562;2024-03-23T03:58:04;100921.28;;;4.27;100.00
59513;BME280;45330;51.634;5.562;2024-03-23T04:00:32;100920.16;;;4.14;100.00
59513;BME280;45330;51.634;5.562;2024-03-23T04:02:58;100894.84;;;3.94;100.00
59513;BME280;45330;51.634;5.562;2024-03-23T04:05:23;100907.72;;;3.94;100.00
59513;BME280;45330;51.634;5.562;2024-03-23T04:07:48;100890.06;;;3.72;100.00
59513;BME280;45330;51.634;5.562;2024-03-23T04:10:14;100932.44;;;3.88;100.00
59513;BME280;45330;51.634;5.562;2024-03-23T04:12:42;100894.88;;;3.58;100.00
59513;BME280;45330;51.634;5.562;2024-03-23T04:15:08;100879.09;;;3.42;100.00
59513;BME280;45330;51.634;5.562;2024-03-23T04:17:33;100886.78;;;3.41;100.00
59513;BME280;45330;51.634;5.562;2024-03-23T04:20:00;100885.91;;;3.40;100.00
59513;BME280;45330;51.634;5.562;2024-03-23T04:22:26;100887.47;;;3.34;100.00
59513;BME280;45330;51.634;5.562;2024-03-23T04:24:56;100905.50;;;3.35;100.00
59513;BME280;45330;51.634;5.562;2024-03-23T04:27:22;100894.13;;;3.25;100.00
59513;BME280;45330;51.634;5.562;2024-03-23T04:29:50;100929.75;;;3.45;100.00
59513;BME280;45330;51.634;5.562;2024-03-23T04:32:16;100925.41;;;3.42;100.00
59513;BME280;45330;51.634;5.562;2024-03-23T04:34:44;100885.44;;;3.22;100.00
59513;BME280;45330;51.634;5.562;2024-03-23T04:37:10;100891.47;;;3.22;100.00
59513;BME280;45330;51.634;5.562;2024-03-23T04:39:38;100930.47;;;3.39;100.00
59513;BME280;45330;51.634;5.562;2024-03-23T04:42:04;100926.94;;;3.36;100.00
59513;BME280;45330;51.634;5.562;2024-03-23T04:44:30;100928.63;;;3.34;100.00
59513;BME280;45330;51.634;5.562;2024-03-23T04:46:56;100895.34;;;3.06;100.00
59513;BME280;45330;51.634;5.562;2024-03-23T04:49:21;100893.53;;;3.02;100.00
59513;BME280;45330;51.634;5.562;2024-03-23T04:51:47;100927.44;;;3.21;100.00
59513;BME280;45330;51.634;5.562;2024-03-23T04:54:12;100922.97;;;3.14;100.00
59513;BME280;45330;51.634;5.562;2024-03-23T04:56:38;100921.22;;;3.13;100.00
59513;BME280;45330;51.634;5.562;2024-03-23T04:59:04;100929.78;;;3.12;100.00
59513;BME280;45330;51.634;5.562;2024-03-23T05:01:30;100889.66;;;2.85;100.00
59513;BME280;45330;51.634;5.562;2024-03-23T05:03:56;100928.72;;;3.05;100.00
59513;BME280;45330;51.634;5.562;2024-03-23T05:06:23;100929.63;;;3.05;100.00
59513;BME280;45330;51.634;5.562;2024-03-23T05:08:48;100932.22;;;3.07;100.00
59513;BME280;45330;51.634;5.562;2024-03-23T05:11:14;100931.25;;;3.03;100.00
59513;BME280;45330;51.634;5.562;2024-03-23T05:13:41;100889.41;;;2.75;100.00
59513;BME280;45330;51.634;5.562;2024-03-23T05:16:06;100923.41;;;2.97;100.00
59513;BME280;45330;51.634;5.562;2024-03-23T05:18:32;100926.84;;;2.98;100.00
59513;BME280;45330;51.634;5.562;2024-03-23T05:20:58;100910.22;;;2.85;100.00
59513;BME280;45330;51.634;5.562;2024-03-23T05:23:24;100917.38;;;2.97;100.00
59513;BME280;45330;51.634;5.562;2024-03-23T05:25:50;100924.16;;;2.93;100.00
59513;BME280;45330;51.634;5.562;2024-03-23T05:28:17;100906.97;;;2.92;100.00
59513;BME280;45330;51.634;5.562;2024-03-23T05:30:42;100887.69;;;2.74;100.00
59513;BME280;45330;51.634;5.562;2024-03-23T05:33:08;100919.06;;;2.95;100.00
59513;BME280;45330;51.634;5.562;2024-03-23T05:35:33;100886.84;;;2.75;100.00
59513;BME280;45330;51.634;5.562;2024-03-23T05:37:59;100876.50;;;2.72;100.00
59513;BME280;45330;51.634;5.562;2024-03-23T05:40:26;100921.72;;;2.99;100.00
59513;BME280;45330;51.634;5.562;2024-03-23T05:42:51;100928.66;;;3.02;100.00
59513;BME280;45330;51.634;5.562;2024-03-23T05:45:21;100905.97;;;2.87;100.00
59513;BME280;45330;51.634;5.562;2024-03-23T05:47:48;100919.16;;;2.99;100.00
59513;BME280;45330;51.634;5.562;2024-03-23T05:50:13;100886.09;;;2.80;100.00
59513;BME280;45330;51.634;5.562;2024-03-23T05:52:39;100926.16;;;3.05;100.00
59513;BME280;45330;51.634;5.562;2024-03-23T05:55:05;100922.72;;;3.04;100.00
59513;BME280;45330;51.634;5.562;2024-03-23T05:57:30;100897.63;;;2.94;100.00
59513;BME280;45330;51.634;5.562;2024-03-23T05:59:56;100934.22;;;3.19;100.00
59513;BME280;45330;51.634;5.562;2024-03-23T06:02:22;100906.44;;;3.04;100.00
59513;BME280;45330;51.634;5.562;2024-03-23T06:04:47;100928.19;;;3.17;100.00
59513;BME280;45330;51.634;5.562;2024-03-23T06:07:13;100906.59;;;3.10;100.00
59513;BME280;45330;51.634;5.562;2024-03-23T06:09:41;100938.69;;;3.26;100.00
59513;BME280;45330;51.634;5.562;2024-03-23T06:12:07;100923.97;;;3.20;100.00
59513;BME280;45330;51.634;5.562;2024-03-23T06:14:32;100923.44;;;3.32;100.00
59513;BME280;45330;51.634;5.562;2024-03-23T06:16:58;100934.09;;;3.48;100.00
59513;BME280;45330;51.634;5.562;2024-03-23T06:19:24;100930.06;;;3.57;100.00
59513;BME280;45330;51.634;5.562;2024-03-23T06:21:52;100932.59;;;3.56;100.00
59513;BME280;45330;51.634;5.562;2024-03-23T06:24:17;100908.19;;;3.40;100.00
59513;BME280;45330;51.634;5.562;2024-03-23T06:26:43;100915.13;;;3.44;100.00
59513;BME280;45330;51.634;5.562;2024-03-23T06:29:08;100931.63;;;3.52;100.00
59513;BME280;45330;51.634;5.562;2024-03-23T06:31:34;100904.00;;;3.43;100.00
59513;BME280;45330;51.634;5.562;2024-03-23T06:33:59;100942.59;;;3.80;100.00
59513;BME280;45330;51.634;5.562;2024-03-23T06:36:26;100933.50;;;3.96;100.00
59513;BME280;45330;51.634;5.562;2024-03-23T06:38:52;100935.34;;;4.02;100.00
59513;BME280;45330;51.634;5.562;2024-03-23T06:41:19;100923.44;;;4.07;100.00
59513;BME280;45330;51.634;5.562;2024-03-23T06:43:44;100929.88;;;4.27;100.00
59513;BME280;45330;51.634;5.562;2024-03-23T06:46:10;100935.44;;;4.46;100.00
59513;BME280;45330;51.634;5.562;2024-03-23T06:48:35;100914.72;;;4.43;100.00
59513;BME280;45330;51.634;5.562;2024-03-23T06:51:01;100893.00;;;4.30;100.00
59513;BME280;45330;51.634;5.562;2024-03-23T06:53:26;100871.13;;;4.08;100.00
59513;BME280;45330;51.634;5.562;2024-03-23T06:55:52;100882.19;;;4.04;100.00
59513;BME280;45330;51.634;5.562;2024-03-23T06:58:22;100927.88;;;4.14;100.00
59513;BME280;45330;51.634;5.562;2024-03-23T07:00:48;100895.53;;;3.86;100.00
59513;BME280;45330;51.634;5.562;2024-03-23T07:03:14;100926.22;;;4.18;100.00
59513;BME280;45330;51.634;5.562;2024-03-23T07:05:39;100923.25;;;4.39;100.00
59513;BME280;45330;51.634;5.562;2024-03-23T07:08:05;100926.22;;;4.57;100.00
59513;BME280;45330;51.634;5.562;2024-03-23T07:10:30;100894.31;;;4.52;100.00
59513;BME280;45330;51.634;5.562;2024-03-23T07:12:56;100928.41;;;4.83;100.00
59513;BME280;45330;51.634;5.562;2024-03-23T07:15:21;100938.00;;;4.90;100.00
59513;BME280;45330;51.634;5.562;2024-03-23T07:17:47;100904.47;;;4.90;100.00
59513;BME280;45330;51.634;5.562;2024-03-23T07:20:12;100902.88;;;4.97;100.00
59513;BME280;45330;51.634;5.562;2024-03-23T07:22:38;100937.00;;;5.32;100.00
59513;BME280;45330;51.634;5.562;2024-03-23T07:25:05;100920.53;;;5.24;100.00
59513;BME280;45330;51.634;5.562;2024-03-23T07:27:31;100922.19;;;5.19;100.00
59513;BME280;45330;51.634;5.562;2024-03-23T07:29:57;100929.69;;;5.07;100.00
59513;BME280;45330;51.634;5.562;2024-03-23T07:32:22;100925.94;;;4.89;100.00
59513;BME280;45330;51.634;5.562;2024-03-23T07:34:48;100916.19;;;4.73;100.00
59513;BME280;45330;51.634;5.562;2024-03-23T07:37:13;100903.00;;;4.57;100.00
59513;BME280;45330;51.634;5.562;2024-03-23T07:39:42;100934.16;;;4.70;100.00
59513;BME280;45330;51.634;5.562;2024-03-23T07:42:07;100932.13;;;4.53;100.00
59513;BME280;45330;51.634;5.562;2024-03-23T07:44:32;100930.28;;;4.46;100.00
59513;BME280;45330;51.634;5.562;2024-03-23T07:47:01;100891.16;;;4.23;100.00
59513;BME280;45330;51.634;5.562;2024-03-23T07:49:26;100887.00;;;4.29;100.00
59513;BME280;45330;51.634;5.562;2024-03-23T07:51:52;100900.09;;;4.40;100.00
59513;BME280;45330;51.634;5.562;2024-03-23T07:54:17;100917.78;;;4.66;100.00
59513;BME280;45330;51.634;5.562;2024-03-23T07:56:42;100889.22;;;4.55;100.00
59513;BME280;45330;51.634;5.562;2024-03-23T07:59:08;100929.28;;;4.85;100.00
59513;BME280;45330;51.634;5.562;2024-03-23T08:01:33;100925.94;;;4.89;100.00
59513;BME280;45330;51.634;5.562;2024-03-23T08:03:59;100913.91;;;4.88;100.00
59513;BME280;45330;51.634;5.562;2024-03-23T08:06:25;100883.69;;;4.81;100.00
59513;BME280;45330;51.634;5.562;2024-03-23T08:08:59;100922.22;;;5.21;100.00
59513;BME280;45330;51.634;5.562;2024-03-23T08:11:26;100880.97;;;5.24;100.00
59513;BME280;45330;51.634;5.562;2024-03-23T08:13:51;100900.25;;;5.46;100.00
59513;BME280;45330;51.634;5.562;2024-03-23T08:16:16;100893.41;;;5.49;100.00
59513;BME280;45330;51.634;5.562;2024-03-23T08:18:42;100893.41;;;5.49;100.00
59513;BME280;45330;51.634;5.562;2024-03-23T08:21:07;100920.34;;;5.65;100.00
59513;BME280;45330;51.634;5.562;2024-03-23T08:23:34;100888.28;;;5.51;100.00
59513;BME280;45330;51.634;5.562;2024-03-23T08:26:04;100919.47;;;5.66;100.00
59513;BME280;45330;51.634;5.562;2024-03-23T08:28:30;100910.94;;;5.71;100.00
59513;BME280;45330;51.634;5.562;2024-03-23T08:30:56;100879.03;;;5.65;100.00
59513;BME280;45330;51.634;5.562;2024-03-23T08:33:22;100917.72;;;6.22;100.00
59513;BME280;45330;51.634;5.562;2024-03-23T08:35:57;100923.25;;;6.51;100.00
59513;BME280;45330;51.634;5.562;2024-03-23T08:38:24;100930.91;;;6.45;100.00
59513;BME280;45330;51.634;5.562;2024-03-23T08:41:02;100950.56;;;6.32;100.00
59513;BME280;45330;51.634;5.562;2024-03-23T08:43:29;100909.91;;;5.59;100.00
59513;BME280;45330;51.634;5.562;2024-03-23T08:46:09;100889.19;;;5.01;100.00
59513;BME280;45330;51.634;5.562;2024-03-23T08:48:36;100921.63;;;4.88;100.00
59513;BME280;45330;51.634;5.562;2024-03-23T08:51:05;100922.97;;;4.68;100.00
59513;BME280;45330;51.634;5.562;2024-03-23T08:53:31;100868.72;;;4.17;100.00
59513;BME280;45330;51.634;5.562;2024-03-23T08:55:57;100877.19;;;4.11;100.00
59513;BME280;45330;51.634;5.562;2024-03-23T08:58:24;100902.38;;;4.25;100.00
59513;BME280;45330;51.634;5.562;2024-03-23T09:00:51;100925.78;;;4.37;100.00
59513;BME280;45330;51.634;5.562;2024-03-23T09:03:16;100885.25;;;4.28;100.00
59513;BME280;45330;51.634;5.562;2024-03-23T09:05:42;100917.03;;;4.72;100.00
59513;BME280;45330;51.634;5.562;2024-03-23T09:08:07;100885.47;;;4.85;100.00
59513;BME280;45330;51.634;5.562;2024-03-23T09:10:39;100879.13;;;5.15;100.00
59513;BME280;45330;51.634;5.562;2024-03-23T09:13:04;100909.28;;;5.74;100.00
59513;BME280;45330;51.634;5.562;2024-03-23T09:15:29;100893.13;;;5.89;100.00
59513;BME280;45330;51.634;5.562;2024-03-23T09:17:56;100906.88;;;5.85;100.00
59513;BME280;45330;51.634;5.562;2024-03-23T09:20:21;100878.97;;;5.62;100.00
59513;BME280;45330;51.634;5.562;2024-03-23T09:22:48;100877.94;;;5.49;100.00
59513;BME280;45330;51.634;5.562;2024-03-23T09:25:13;100914.19;;;5.56;100.00
59513;BME280;45330;51.634;5.562;2024-03-23T09:27:39;100908.53;;;5.25;100.00
59513;BME280;45330;51.634;5.562;2024-03-23T09:30:05;100871.63;;;4.78;100.00
59513;BME280;45330;51.634;5.562;2024-03-23T09:32:30;100871.22;;;4.58;100.00
59513;BME280;45330;51.634;5.562;2024-03-23T09:34:55;100860.56;;;4.40;100.00
59513;BME280;45330;51.634;5.562;2024-03-23T09:37:21;100899.72;;;4.66;100.00
59513;BME280;45330;51.634;5.562;2024-03-23T09:39:46;100896.69;;;4.87;100.00
59513;BME280;45330;51.634;5.562;2024-03-23T09:42:11;100894.41;;;5.04;100.00
59513;BME280;45330;51.634;5.562;2024-03-23T09:44:37;100897.19;;;5.17;100.00
59513;BME280;45330;51.634;5.562;2024-03-23T09:47:02;100879.16;;;5.18;100.00
59513;BME280;45330;51.634;5.562;2024-03-23T09:49:29;100870.59;;;5.21;100.00
59513;BME280;45330;51.634;5.562;2024-03-23T09:51:55;100850.78;;;5.18;100.00
59513;BME280;45330;51.634;5.562;2024-03-23T09:54:21;100875.38;;;5.53;100.00
59513;BME280;45330;51.634;5.562;2024-03-23T09:56:47;100882.72;;;5.83;100.00
59513;BME280;45330;51.634;5.562;2024-03-23T09:59:12;100849.44;;;6.05;100.00
59513;BME280;45330;51.634;5.562;2024-03-23T10:01:37;100884.56;;;6.62;100.00
59513;BME280;45330;51.634;5.562;2024-03-23T10:04:03;100861.41;;;6.72;100.00
59513;BME280;45330;51.634;5.562;2024-03-23T10:06:28;100885.72;;;6.89;100.00
59513;BME280;45330;51.634;5.562;2024-03-23T10:08:54;100855.47;;;6.80;100.00
59513;BME280;45330;51.634;5.562;2024-03-23T10:11:20;100865.09;;;6.95;100.00
59513;BME280;45330;51.634;5.562;2024-03-23T10:13:46;100879.00;;;7.07;100.00
59513;BME280;45330;51.634;5.562;2024-03-23T10:16:21;100866.91;;;7.06;100.00
59513;BME280;45330;51.634;5.562;2024-03-23T10:18:47;100860.88;;;7.08;100.00
59513;BME280;45330;51.634;5.562;2024-03-23T10:21:14;100886.91;;;7.24;100.00
59513;BME280;45330;51.634;5.562;2024-03-23T10:23:41;100889.50;;;7.27;100.00
59513;BME280;45330;51.634;5.562;2024-03-23T10:26:18;100885.16;;;7.22;100.00
59513;BME280;45330;51.634;5.562;2024-03-23T10:29:02;100890.34;;;7.24;100.00
59513;BME280;45330;51.634;5.562;2024-03-23T10:31:33;100868.91;;;7.41;100.00
59513;BME280;45330;51.634;5.562;2024-03-23T10:34:02;100886.41;;;7.74;100.00
59513;BME280;45330;51.634;5.562;2024-03-23T10:36:29;100870.78;;;7.65;100.00
59513;BME280;45330;51.634;5.562;2024-03-23T10:38:55;100862.19;;;7.70;100.00
59513;BME280;45330;51.634;5.562;2024-03-23T10:41:21;100871.50;;;7.44;100.00
59513;BME280;45330;51.634;5.562;2024-03-23T10:43:47;100901.56;;;7.25;100.00
59513;BME280;45330;51.634;5.562;2024-03-23T10:46:12;100867.53;;;6.80;100.00
59513;BME280;45330;51.634;5.562;2024-03-23T10:48:38;100881.16;;;6.65;100.00
59513;BME280;45330;51.634;5.562;2024-03-23T10:51:06;100905.09;;;6.47;100.00
59513;BME280;45330;51.634;5.562;2024-03-23T10:53:33;100894.41;;;6.17;100.00
59513;BME280;45330;51.634;5.562;2024-03-23T10:55:59;100893.22;;;5.95;100.00
59513;BME280;45330;51.634;5.562;2024-03-23T10:58:27;100882.69;;;5.80;100.00
59513;BME280;45330;51.634;5.562;2024-03-23T11:00:54;100860.06;;;5.63;100.00
59513;BME280;45330;51.634;5.562;2024-03-23T11:03:33;100866.47;;;5.90;100.00
59513;BME280;45330;51.634;5.562;2024-03-23T11:06:00;100893.25;;;6.66;100.00
59513;BME280;45330;51.634;5.562;2024-03-23T11:08:36;100897.88;;;6.95;100.00
59513;BME280;45330;51.634;5.562;2024-03-23T11:11:21;100883.22;;;7.00;100.00
59513;BME280;45330;51.634;5.562;2024-03-23T11:13:51;100890.28;;;7.15;100.00
59513;BME280;45330;51.634;5.562;2024-03-23T11:16:22;100892.88;;;7.18;100.00
59513;BME280;45330;51.634;5.562;2024-03-23T11:18:48;100891.78;;;6.91;100.00
59513;BME280;45330;51.634;5.562;2024-03-23T11:21:51;100926.22;;;6.13;100.00
59513;BME280;45330;51.634;5.562;2024-03-23T11:24:17;100896.00;;;5.49;100.00
59513;BME280;45330;51.634;5.562;2024-03-23T11:26:44;100891.50;;;5.36;100.00
59513;BME280;45330;51.634;5.562;2024-03-23T11:29:10;100854.13;;;5.11;100.00
59513;BME280;45330;51.634;5.562;2024-03-23T11:31:37;100849.72;;;5.05;100.00
59513;BME280;45330;51.634;5.562;2024-03-23T11:34:04;100857.47;;;5.07;100.00
59513;BME280;45330;51.634;5.562;2024-03-23T11:36:30;100888.09;;;5.39;100.00
59513;BME280;45330;51.634;5.562;2024-03-23T11:38:55;100856.03;;;5.24;100.00
59513;BME280;45330;51.634;5.562;2024-03-23T11:41:21;100906.22;;;5.42;100.00
59513;BME280;45330;51.634;5.562;2024-03-23T11:43:47;100858.53;;;5.18;100.00
59513;BME280;45330;51.634;5.562;2024-03-23T11:46:22;100887.44;;;5.52;100.00
59513;BME280;45330;51.634;5.562;2024-03-23T11:48:50;100839.31;;;5.54;100.00
59513;BME280;45330;51.634;5.562;2024-03-23T11:51:19;100880.50;;;6.08;100.00
59513;BME280;45330;51.634;5.562;2024-03-23T11:53:45;100880.13;;;6.49;100.00
59513;BME280;45330;51.634;5.562;2024-03-23T11:56:10;100871.78;;;6.75;100.00
59513;BME280;45330;51.634;5.562;2024-03-23T11:58:35;100875.31;;;6.83;100.00
59513;BME280;45330;51.634;5.562;2024-03-23T12:01:02;100855.06;;;6.40;100.00
59513;BME280;45330;51.634;5.562;2024-03-23T12:03:29;100871.84;;;6.04;100.00
59513;BME280;45330;51.634;5.562;2024-03-23T12:05:56;100876.97;;;5.99;100.00
59513;BME280;45330;51.634;5.562;2024-03-23T12:08:43;100858.03;;;6.00;100.00
59513;BME280;45330;51.634;5.562;2024-03-23T12:11:10;100843.81;;;6.38;100.00
59513;BME280;45330;51.634;5.562;2024-03-23T12:13:37;100877.88;;;6.80;100.00
59513;BME280;45330;51.634;5.562;2024-03-23T12:16:19;100850.28;;;6.80;100.00
59513;BME280;45330;51.634;5.562;2024-03-23T12:18:47;100873.84;;;7.10;100.00
59513;BME280;45330;51.634;5.562;2024-03-23T12:21:14;100823.69;;;6.95;100.00
59513;BME280;45330;51.634;5.562;2024-03-23T12:23:39;100841.72;;;6.87;100.00
59513;BME280;45330;51.634;5.562;2024-03-23T12:26:05;100862.41;;;6.84;100.00
59513;BME280;45330;51.634;5.562;2024-03-23T12:28:32;100839.75;;;6.62;100.00
59513;BME280;45330;51.634;5.562;2024-03-23T12:30:57;100821.50;;;6.46;100.00
59513;BME280;45330;51.634;5.562;2024-03-23T12:33:23;100823.28;;;6.52;100.00
59513;BME280;45330;51.634;5.562;2024-03-23T12:35:49;100862.31;;;6.74;100.00
59513;BME280;45330;51.634;5.562;2024-03-23T12:38:15;100840.34;;;6.34;100.00
59513;BME280;45330;51.634;5.562;2024-03-23T12:40:40;100845.13;;;6.00;100.00
59513;BME280;45330;51.634;5.562;2024-03-23T12:43:06;100820.53;;;5.67;100.00
59513;BME280;45330;51.634;5.562;2024-03-23T12:45:33;100867.91;;;5.70;100.00
59513;BME280;45330;51.634;5.562;2024-03-23T12:47:58;100857.38;;;5.56;100.00
59513;BME280;45330;51.634;5.562;2024-03-23T12:50:23;100812.72;;;5.61;100.00
59513;BME280;45330;51.634;5.562;2024-03-23T12:52:49;100842.75;;;6.19;100.00
59513;BME280;45330;51.634;5.562;2024-03-23T12:55:14;100855.94;;;6.44;100.00
59513;BME280;45330;51.634;5.562;2024-03-23T12:57:40;100808.38;;;6.25;100.00
59513;BME280;45330;51.634;5.562;2024-03-23T13:00:06;100814.53;;;6.39;100.00
59513;BME280;45330;51.634;5.562;2024-03-23T13:02:32;100835.41;;;6.58;100.00
59513;BME280;45330;51.634;5.562;2024-03-23T13:04:58;100824.91;;;6.42;100.00
59513;BME280;45330;51.634;5.562;2024-03-23T13:07:24;100885.38;;;6.55;100.00
59513;BME280;45330;51.634;5.562;2024-03-23T13:09:50;100852.16;;;6.14;100.00
59513;BME280;45330;51.634;5.562;2024-03-23T13:12:16;100852.66;;;5.87;100.00
59513;BME280;45330;51.634;5.562;2024-03-23T13:14:43;100865.41;;;5.74;100.00
59513;BME280;45330;51.634;5.562;2024-03-23T13:17:09;100857.41;;;5.57;100.00
59513;BME280;45330;51.634;5.562;2024-03-23T13:19:34;100824.41;;;5.36;100.00
59513;BME280;45330;51.634;5.562;2024-03-23T13:22:00;100840.09;;;5.50;100.00
59513;BME280;45330;51.634;5.562;2024-03-23T13:24:29;100834.44;;;5.76;100.00
59513;BME280;45330;51.634;5.562;2024-03-23T13:26:55;100869.38;;;6.13;100.00
59513;BME280;45330;51.634;5.562;2024-03-23T13:29:21;100829.72;;;6.10;100.00
59513;BME280;45330;51.634;5.562;2024-03-23T13:31:51;100869.78;;;6.46;100.00
59513;BME280;45330;51.634;5.562;2024-03-23T13:34:17;100844.63;;;6.32;100.00
59513;BME280;45330;51.634;5.562;2024-03-23T13:36:47;100845.53;;;6.34;100.00
59513;BME280;45330;51.634;5.562;2024-03-23T13:39:13;100870.59;;;6.45;100.00
59513;BME280;45330;51.634;5.562;2024-03-23T13:41:39;100859.31;;;6.37;100.00